sensor_id;sensor_type;location;lat;lon;timestamp;pressure;altitude;pressure_sealevel;temperature;humidity
35655;BME280;21773;50.010;19.972;2023-02-26T00:02:54;97482.63;;;7.64;57.31
35655;BME280;21773;50.010;19.972;2023-02-26T00:06:00;97493.81;;;7.61;57.31
35655;BME280;21773;50.010;19.972;2023-02-26T00:09:04;97502.59;;;7.56;57.41
35655;BME280;21773;50.010;19.972;2023-02-26T00:12:10;97510.75;;;7.50;57.57
35655;BME280;21773;50.010;19.972;2023-02-26T00:15:14;97500.50;;;7.47;57.55
35655;BME280;21773;50.010;19.972;2023-02-26T00:18:19;97498.03;;;7.45;57.44
35655;BME280;21773;50.010;19.972;2023-02-26T00:21:25;97503.28;;;7.40;57.48
35655;BME280;21773;50.010;19.972;2023-02-26T00:24:29;97502.25;;;7.41;56.97
35655;BME280;21773;50.010;19.972;2023-02-26T00:27:32;97509.81;;;7.44;56.72
35655;BME280;21773;50.010;19.972;2023-02-26T00:30:36;97516.81;;;7.45;56.52
35655;BME280;21773;50.010;19.972;2023-02-26T00:33:40;97525.31;;;7.54;56.52
35655;BME280;21773;50.010;19.972;2023-02-26T00:36:51;97528.69;;;7.49;56.09
35655;BME280;21773;50.010;19.972;2023-02-26T00:40:04;97543.28;;;7.42;56.30
35655;BME280;21773;50.010;19.972;2023-02-26T00:43:16;97545.25;;;7.34;56.22
35655;BME280;21773;50.010;19.972;2023-02-26T00:46:27;97549.91;;;7.39;55.98
35655;BME280;21773;50.010;19.972;2023-02-26T00:49:45;97553.88;;;7.48;55.93
35655;BME280;21773;50.010;19.972;2023-02-26T00:53:01;97534.31;;;7.36;55.56
35655;BME280;21773;50.010;19.972;2023-02-26T00:56:06;97561.56;;;7.56;55.37
35655;BME280;21773;50.010;19.972;2023-02-26T00:59:09;97564.72;;;7.65;55.02
35655;BME280;21773;50.010;19.972;2023-02-26T01:02:12;97570.06;;;7.65;54.77
35655;BME280;21773;50.010;19.972;2023-02-26T01:05:17;97567.88;;;7.62;55.20
35655;BME280;21773;50.010;19.972;2023-02-26T01:08:27;97570.19;;;7.58;55.64
35655;BME280;21773;50.010;19.972;2023-02-26T01:11:35;97552.38;;;7.52;55.78
35655;BME280;21773;50.010;19.972;2023-02-26T01:14:39;97567.06;;;7.61;56.04
35655;BME280;21773;50.010;19.972;2023-02-26T01:17:46;97562.50;;;7.62;56.10
35655;BME280;21773;50.010;19.972;2023-02-26T01:20:55;97549.22;;;7.67;56.04
35655;BME280;21773;50.010;19.972;2023-02-26T01:24:04;97540.34;;;7.66;55.91
35655;BME280;21773;50.010;19.972;2023-02-26T01:27:09;97543.84;;;7.67;55.81
35655;BME280;21773;50.010;19.972;2023-02-26T01:30:13;97540.19;;;7.73;55.64
35655;BME280;21773;50.010;19.972;2023-02-26T01:33:21;97541.94;;;7.67;55.38
35655;BME280;21773;50.010;19.972;2023-02-26T01:36:32;97540.91;;;7.68;55.47
35655;BME280;21773;50.010;19.972;2023-02-26T01:39:44;97536.59;;;7.67;55.50
35655;BME280;21773;50.010;19.972;2023-02-26T01:42:53;97532.19;;;7.61;55.51
35655;BME280;21773;50.010;19.972;2023-02-26T01:46:05;97549.22;;;7.55;55.14
35655;BME280;21773;50.010;19.972;2023-02-26T01:49:12;97558.91;;;7.56;55.30
35655;BME280;21773;50.010;19.972;2023-02-26T01:55:58;97573.94;;;7.57;54.70
35655;BME280;21773;50.010;19.972;2023-02-26T01:59:03;97576.97;;;7.49;55.05
35655;BME280;21773;50.010;19.972;2023-02-26T02:02:11;97584.19;;;7.49;54.83
35655;BME280;21773;50.010;19.972;2023-02-26T02:05:20;97591.41;;;7.48;54.94
35655;BME280;21773;50.010;19.972;2023-02-26T02:08:24;97601.91;;;7.50;54.60
35655;BME280;21773;50.010;19.972;2023-02-26T02:11:29;97607.06;;;7.51;54.21
35655;BME280;21773;50.010;19.972;2023-02-26T02:14:44;97613.09;;;7.58;54.05
35655;BME280;21773;50.010;19.972;2023-02-26T02:17:54;97606.25;;;7.62;53.63
35655;BME280;21773;50.010;19.972;2023-02-26T02:21:40;97597.72;;;7.65;53.69
35655;BME280;21773;50.010;19.972;2023-02-26T02:24:57;97597.84;;;7.70;53.51
35655;BME280;21773;50.010;19.972;2023-02-26T02:28:21;97609.13;;;7.72;53.25
35655;BME280;21773;50.010;19.972;2023-02-26T02:31:34;97619.41;;;7.75;52.81
35655;BME280;21773;50.010;19.972;2023-02-26T02:34:45;97634.19;;;7.78;52.71
35655;BME280;21773;50.010;19.972;2023-02-26T02:37:54;97636.31;;;7.76;53.07
35655;BME280;21773;50.010;19.972;2023-02-26T02:41:06;97649.03;;;7.80;53.31
35655;BME280;21773;50.010;19.972;2023-02-26T02:44:13;97654.06;;;7.77;53.38
35655;BME280;21773;50.010;19.972;2023-02-26T02:47:20;97636.78;;;7.61;53.11
35655;BME280;21773;50.010;19.972;2023-02-26T02:50:28;97656.63;;;7.72;53.21
35655;BME280;21773;50.010;19.972;2023-02-26T02:53:38;97659.66;;;7.75;53.08
35655;BME280;21773;50.010;19.972;2023-02-26T02:56:46;97663.97;;;7.76;53.50
35655;BME280;21773;50.010;19.972;2023-02-26T02:59:55;97656.13;;;7.75;53.47
35655;BME280;21773;50.010;19.972;2023-02-26T03:03:09;97644.00;;;7.72;53.38
35655;BME280;21773;50.010;19.972;2023-02-26T03:06:15;97639.44;;;7.73;53.60
35655;BME280;21773;50.010;19.972;2023-02-26T03:09:23;97635.16;;;7.72;53.78
35655;BME280;21773;50.010;19.972;2023-02-26T03:12:30;97624.28;;;7.78;53.02
35655;BME280;21773;50.010;19.972;2023-02-26T03:15:37;97615.09;;;7.74;52.83
35655;BME280;21773;50.010;19.972;2023-02-26T03:18:51;97626.16;;;7.78;52.57
35655;BME280;21773;50.010;19.972;2023-02-26T03:22:02;97640.88;;;7.75;52.22
35655;BME280;21773;50.010;19.972;2023-02-26T03:25:31;97652.88;;;7.73;51.71
35655;BME280;21773;50.010;19.972;2023-02-26T03:28:40;97670.84;;;7.61;51.45
35655;BME280;21773;50.010;19.972;2023-02-26T03:31:51;97685.84;;;7.50;51.59
35655;BME280;21773;50.010;19.972;2023-02-26T03:35:03;97681.41;;;7.44;51.22
35655;BME280;21773;50.010;19.972;2023-02-26T03:38:12;97702.28;;;7.54;50.83
35655;BME280;21773;50.010;19.972;2023-02-26T03:41:21;97711.28;;;7.59;50.64
35655;BME280;21773;50.010;19.972;2023-02-26T03:44:30;97718.91;;;7.62;49.88
35655;BME280;21773;50.010;19.972;2023-02-26T03:47:35;97720.38;;;7.58;49.10
35655;BME280;21773;50.010;19.972;2023-02-26T03:50:43;97716.56;;;7.66;48.34
35655;BME280;21773;50.010;19.972;2023-02-26T03:54:18;97717.13;;;7.56;48.45
35655;BME280;21773;50.010;19.972;2023-02-26T03:57:34;97709.91;;;7.57;48.25
35655;BME280;21773;50.010;19.972;2023-02-26T04:00:57;97708.25;;;7.56;47.96
35655;BME280;21773;50.010;19.972;2023-02-26T04:04:05;97704.88;;;7.60;47.73
35655;BME280;21773;50.010;19.972;2023-02-26T04:07:12;97722.09;;;7.53;47.47
35655;BME280;21773;50.010;19.972;2023-02-26T04:10:18;97735.41;;;7.48;47.06
35655;BME280;21773;50.010;19.972;2023-02-26T04:13:24;97750.66;;;7.35;46.85
35655;BME280;21773;50.010;19.972;2023-02-26T04:16:30;97757.94;;;7.28;47.35
35655;BME280;21773;50.010;19.972;2023-02-26T04:19:33;97762.06;;;7.31;47.24
35655;BME280;21773;50.010;19.972;2023-02-26T04:22:38;97775.09;;;7.27;46.96
35655;BME280;21773;50.010;19.972;2023-02-26T04:25:41;97784.06;;;7.21;47.12
35655;BME280;21773;50.010;19.972;2023-02-26T04:28:46;97758.13;;;7.04;46.91
35655;BME280;21773;50.010;19.972;2023-02-26T04:31:50;97772.91;;;7.06;46.03
35655;BME280;21773;50.010;19.972;2023-02-26T04:34:53;97800.59;;;7.18;46.18
35655;BME280;21773;50.010;19.972;2023-02-26T04:37:59;97801.16;;;7.20;46.41
35655;BME280;21773;50.010;19.972;2023-02-26T04:41:02;97802.13;;;7.26;46.25
35655;BME280;21773;50.010;19.972;2023-02-26T04:44:06;97800.63;;;7.30;45.73
35655;BME280;21773;50.010;19.972;2023-02-26T04:47:11;97817.41;;;7.25;45.73
35655;BME280;21773;50.010;19.972;2023-02-26T04:50:16;97810.63;;;7.23;45.93
35655;BME280;21773;50.010;19.972;2023-02-26T04:53:23;97809.22;;;7.20;46.18
35655;BME280;21773;50.010;19.972;2023-02-26T04:56:26;97812.84;;;7.26;46.23
35655;BME280;21773;50.010;19.972;2023-02-26T04:59:31;97809.34;;;7.25;46.67
35655;BME280;21773;50.010;19.972;2023-02-26T05:02:34;97811.00;;;7.26;46.20
35655;BME280;21773;50.010;19.972;2023-02-26T05:05:38;97821.13;;;7.24;46.73
35655;BME280;21773;50.010;19.972;2023-02-26T05:08:43;97822.53;;;7.27;47.05
35655;BME280;21773;50.010;19.972;2023-02-26T05:11:46;97836.50;;;7.29;46.78
35655;BME280;21773;50.010;19.972;2023-02-26T05:14:50;97836.75;;;7.27;46.46
35655;BME280;21773;50.010;19.972;2023-02-26T05:17:53;97828.47;;;7.29;46.81
35655;BME280;21773;50.010;19.972;2023-02-26T05:20:57;97825.28;;;7.20;46.51
35655;BME280;21773;50.010;19.972;2023-02-26T05:24:02;97824.03;;;7.23;46.69
35655;BME280;21773;50.010;19.972;2023-02-26T05:27:06;97833.13;;;7.22;46.37
35655;BME280;21773;50.010;19.972;2023-02-26T05:30:15;97837.72;;;7.15;45.24
35655;BME280;21773;50.010;19.972;2023-02-26T05:33:18;97825.81;;;7.11;45.03
35655;BME280;21773;50.010;19.972;2023-02-26T05:36:22;97846.28;;;7.23;44.76
35655;BME280;21773;50.010;19.972;2023-02-26T05:39:27;97851.00;;;7.28;44.75
35655;BME280;21773;50.010;19.972;2023-02-26T05:42:31;97861.47;;;7.29;44.64
35655;BME280;21773;50.010;19.972;2023-02-26T05:45:34;97871.38;;;7.29;44.67
35655;BME280;21773;50.010;19.972;2023-02-26T05:48:37;97888.13;;;7.24;44.67
35655;BME280;21773;50.010;19.972;2023-02-26T05:51:41;97900.50;;;7.25;44.80
35655;BME280;21773;50.010;19.972;2023-02-26T05:54:46;97918.28;;;7.20;44.75
35655;BME280;21773;50.010;19.972;2023-02-26T05:57:49;97924.25;;;7.22;44.50
35655;BME280;21773;50.010;19.972;2023-02-26T06:00:53;97924.00;;;7.23;43.54
35655;BME280;21773;50.010;19.972;2023-02-26T06:03:56;97930.03;;;7.19;43.87
35655;BME280;21773;50.010;19.972;2023-02-26T06:07:00;97937.66;;;7.22;43.90
35655;BME280;21773;50.010;19.972;2023-02-26T06:10:06;97927.75;;;7.22;43.89
35655;BME280;21773;50.010;19.972;2023-02-26T06:13:10;97932.88;;;7.24;44.15
35655;BME280;21773;50.010;19.972;2023-02-26T06:16:13;97948.75;;;7.25;44.52
35655;BME280;21773;50.010;19.972;2023-02-26T06:19:17;97967.97;;;7.22;44.53
35655;BME280;21773;50.010;19.972;2023-02-26T06:22:22;97967.72;;;7.24;44.79
35655;BME280;21773;50.010;19.972;2023-02-26T06:25:27;97975.34;;;7.27;44.97
35655;BME280;21773;50.010;19.972;2023-02-26T06:28:30;97981.59;;;7.21;44.97
35655;BME280;21773;50.010;19.972;2023-02-26T06:31:33;97985.81;;;7.28;44.79
35655;BME280;21773;50.010;19.972;2023-02-26T06:34:37;97986.88;;;7.27;44.51
35655;BME280;21773;50.010;19.972;2023-02-26T06:37:41;98001.31;;;7.26;44.24
35655;BME280;21773;50.010;19.972;2023-02-26T06:40:46;97998.94;;;7.18;44.20
35655;BME280;21773;50.010;19.972;2023-02-26T06:43:49;97990.97;;;7.30;44.34
35655;BME280;21773;50.010;19.972;2023-02-26T06:46:53;97996.28;;;7.36;43.82
35655;BME280;21773;50.010;19.972;2023-02-26T06:49:56;97997.91;;;7.56;43.72
35655;BME280;21773;50.010;19.972;2023-02-26T06:52:59;98003.31;;;7.67;43.48
35655;BME280;21773;50.010;19.972;2023-02-26T06:56:05;98011.25;;;8.82;42.07
35655;BME280;21773;50.010;19.972;2023-02-26T06:59:08;98008.41;;;9.70;40.57
35655;BME280;21773;50.010;19.972;2023-02-26T07:02:16;98012.97;;;10.66;37.94
35655;BME280;21773;50.010;19.972;2023-02-26T07:05:19;97997.78;;;11.65;36.65
35655;BME280;21773;50.010;19.972;2023-02-26T07:08:23;98012.97;;;13.69;33.17
35655;BME280;21773;50.010;19.972;2023-02-26T07:11:27;98002.97;;;15.83;30.06
35655;BME280;21773;50.010;19.972;2023-02-26T07:14:31;98013.38;;;18.00;27.33
35655;BME280;21773;50.010;19.972;2023-02-26T07:17:35;98018.75;;;19.22;25.59
35655;BME280;21773;50.010;19.972;2023-02-26T07:20:38;98008.03;;;21.03;23.89
35655;BME280;21773;50.010;19.972;2023-02-26T07:23:41;98016.94;;;22.24;21.58
35655;BME280;21773;50.010;19.972;2023-02-26T07:26:46;98025.25;;;21.71;21.94
35655;BME280;21773;50.010;19.972;2023-02-26T07:29:49;98024.00;;;19.97;23.35
35655;BME280;21773;50.010;19.972;2023-02-26T07:32:52;98024.13;;;17.91;24.93
35655;BME280;21773;50.010;19.972;2023-02-26T07:35:56;98030.50;;;16.36;26.71
35655;BME280;21773;50.010;19.972;2023-02-26T07:39:00;98036.72;;;15.22;28.00
35655;BME280;21773;50.010;19.972;2023-02-26T07:42:04;98039.81;;;14.32;29.36
35655;BME280;21773;50.010;19.972;2023-02-26T07:45:09;98028.44;;;13.26;30.40
35655;BME280;21773;50.010;19.972;2023-02-26T07:48:12;98072.31;;;12.75;31.79
35655;BME280;21773;50.010;19.972;2023-02-26T07:51:18;98078.63;;;12.10;32.52
35655;BME280;21773;50.010;19.972;2023-02-26T07:54:21;98084.75;;;11.67;33.33
35655;BME280;21773;50.010;19.972;2023-02-26T07:57:26;98098.66;;;11.25;33.54
35655;BME280;21773;50.010;19.972;2023-02-26T08:00:29;98094.25;;;11.19;33.94
35655;BME280;21773;50.010;19.972;2023-02-26T08:03:33;98114.75;;;10.87;33.89
35655;BME280;21773;50.010;19.972;2023-02-26T08:06:36;98111.97;;;10.54;34.59
35655;BME280;21773;50.010;19.972;2023-02-26T08:09:39;98117.22;;;10.20;34.60
35655;BME280;21773;50.010;19.972;2023-02-26T08:12:44;98127.44;;;9.72;35.30
35655;BME280;21773;50.010;19.972;2023-02-26T08:15:47;98136.75;;;9.34;35.97
35655;BME280;21773;50.010;19.972;2023-02-26T08:18:51;98137.19;;;9.08;37.00
35655;BME280;21773;50.010;19.972;2023-02-26T08:21:54;98133.63;;;8.84;37.48
35655;BME280;21773;50.010;19.972;2023-02-26T08:24:57;98132.38;;;8.68;37.69
35655;BME280;21773;50.010;19.972;2023-02-26T08:28:03;98137.13;;;8.55;38.18
35655;BME280;21773;50.010;19.972;2023-02-26T08:31:06;98146.59;;;8.57;38.80
35655;BME280;21773;50.010;19.972;2023-02-26T08:34:09;98150.72;;;8.42;38.67
35655;BME280;21773;50.010;19.972;2023-02-26T08:37:13;98145.03;;;8.50;38.43
35655;BME280;21773;50.010;19.972;2023-02-26T08:40:17;98154.03;;;8.55;38.55
35655;BME280;21773;50.010;19.972;2023-02-26T08:43:22;98161.03;;;8.75;38.32
35655;BME280;21773;50.010;19.972;2023-02-26T08:46:26;98166.09;;;8.83;37.93
35655;BME280;21773;50.010;19.972;2023-02-26T08:49:30;98159.00;;;8.88;37.46
35655;BME280;21773;50.010;19.972;2023-02-26T08:52:33;98165.31;;;8.94;38.11
35655;BME280;21773;50.010;19.972;2023-02-26T08:55:36;98164.31;;;9.06;37.79
35655;BME280;21773;50.010;19.972;2023-02-26T08:58:42;98173.41;;;9.05;37.72
35655;BME280;21773;50.010;19.972;2023-02-26T09:01:45;98161.13;;;9.09;37.06
35655;BME280;21773;50.010;19.972;2023-02-26T09:04:48;98177.75;;;9.48;37.08
35655;BME280;21773;50.010;19.972;2023-02-26T09:07:52;98173.41;;;9.70;36.95
35655;BME280;21773;50.010;19.972;2023-02-26T09:10:58;98183.25;;;9.99;35.98
35655;BME280;21773;50.010;19.972;2023-02-26T09:14:03;98195.56;;;10.19;35.96
35655;BME280;21773;50.010;19.972;2023-02-26T09:17:07;98203.28;;;10.27;35.18
35655;BME280;21773;50.010;19.972;2023-02-26T09:20:11;98210.66;;;10.31;34.75
35655;BME280;21773;50.010;19.972;2023-02-26T09:23:15;98213.22;;;10.26;34.84
35655;BME280;21773;50.010;19.972;2023-02-26T09:26:18;98223.44;;;10.24;35.21
35655;BME280;21773;50.010;19.972;2023-02-26T09:29:23;98218.75;;;10.20;34.91
35655;BME280;21773;50.010;19.972;2023-02-26T09:32:26;98221.19;;;10.10;34.75
35655;BME280;21773;50.010;19.972;2023-02-26T09:35:30;98233.00;;;9.85;34.77
35655;BME280;21773;50.010;19.972;2023-02-26T09:38:34;98238.09;;;9.64;35.43
35655;BME280;21773;50.010;19.972;2023-02-26T09:41:41;98245.91;;;9.42;35.57
35655;BME280;21773;50.010;19.972;2023-02-26T09:44:47;98247.09;;;9.16;37.49
35655;BME280;21773;50.010;19.972;2023-02-26T09:47:53;98243.34;;;8.87;38.75
35655;BME280;21773;50.010;19.972;2023-02-26T09:50:57;98238.38;;;8.54;39.65
35655;BME280;21773;50.010;19.972;2023-02-26T09:54:08;98247.78;;;8.45;40.70
35655;BME280;21773;50.010;19.972;2023-02-26T09:57:24;98247.16;;;8.25;40.36
35655;BME280;21773;50.010;19.972;2023-02-26T10:00:34;98255.06;;;8.20;40.76
35655;BME280;21773;50.010;19.972;2023-02-26T10:03:53;98251.25;;;8.27;40.08
35655;BME280;21773;50.010;19.972;2023-02-26T10:07:10;98260.09;;;8.35;40.47
35655;BME280;21773;50.010;19.972;2023-02-26T10:10:23;98270.75;;;8.41;40.29
35655;BME280;21773;50.010;19.972;2023-02-26T10:13:36;98274.88;;;8.62;40.75
35655;BME280;21773;50.010;19.972;2023-02-26T10:17:10;98273.94;;;9.34;39.27
35655;BME280;21773;50.010;19.972;2023-02-26T10:20:20;98269.34;;;10.18;37.27
35655;BME280;21773;50.010;19.972;2023-02-26T10:23:31;98286.50;;;10.86;37.24
35655;BME280;21773;50.010;19.972;2023-02-26T10:26:40;98280.88;;;11.28;36.47
35655;BME280;21773;50.010;19.972;2023-02-26T10:29:54;98289.25;;;11.43;35.62
35655;BME280;21773;50.010;19.972;2023-02-26T10:33:09;98277.28;;;11.39;34.62
35655;BME280;21773;50.010;19.972;2023-02-26T10:36:21;98283.06;;;11.31;33.38
35655;BME280;21773;50.010;19.972;2023-02-26T10:39:30;98297.88;;;11.28;33.01
35655;BME280;21773;50.010;19.972;2023-02-26T10:42:42;98290.47;;;11.24;31.96
35655;BME280;21773;50.010;19.972;2023-02-26T10:45:59;98298.44;;;12.21;32.02
35655;BME280;21773;50.010;19.972;2023-02-26T10:49:22;98304.41;;;13.65;30.97
35655;BME280;21773;50.010;19.972;2023-02-26T10:52:31;98316.38;;;14.64;27.62
35655;BME280;21773;50.010;19.972;2023-02-26T10:55:40;98311.50;;;16.06;26.35
35655;BME280;21773;50.010;19.972;2023-02-26T10:58:44;98309.50;;;18.11;25.04
35655;BME280;21773;50.010;19.972;2023-02-26T11:01:48;98320.00;;;20.18;21.74
35655;BME280;21773;50.010;19.972;2023-02-26T11:04:55;98318.47;;;21.86;19.59
35655;BME280;21773;50.010;19.972;2023-02-26T11:08:15;98313.38;;;23.04;18.58
35655;BME280;21773;50.010;19.972;2023-02-26T11:11:40;98324.44;;;23.21;17.49
35655;BME280;21773;50.010;19.972;2023-02-26T11:14:45;98322.38;;;23.92;16.91
35655;BME280;21773;50.010;19.972;2023-02-26T11:17:53;98316.41;;;23.99;17.43
35655;BME280;21773;50.010;19.972;2023-02-26T11:21:03;98324.56;;;23.56;16.20
35655;BME280;21773;50.010;19.972;2023-02-26T11:24:11;98327.53;;;22.22;17.68
35655;BME280;21773;50.010;19.972;2023-02-26T11:27:18;98339.34;;;21.32;18.74
35655;BME280;21773;50.010;19.972;2023-02-26T11:30:25;98344.09;;;21.13;19.22
35655;BME280;21773;50.010;19.972;2023-02-26T11:33:35;98346.06;;;20.29;19.10
35655;BME280;21773;50.010;19.972;2023-02-26T11:36:43;98350.41;;;19.08;20.18
35655;BME280;21773;50.010;19.972;2023-02-26T11:39:49;98358.53;;;17.77;22.58
35655;BME280;21773;50.010;19.972;2023-02-26T11:42:58;98377.31;;;16.48;24.32
35655;BME280;21773;50.010;19.972;2023-02-26T11:46:04;98370.34;;;15.55;25.62
35655;BME280;21773;50.010;19.972;2023-02-26T11:49:10;98371.63;;;14.53;27.22
35655;BME280;21773;50.010;19.972;2023-02-26T11:52:20;98371.34;;;13.69;28.21
35655;BME280;21773;50.010;19.972;2023-02-26T11:55:28;98381.13;;;12.88;28.81
35655;BME280;21773;50.010;19.972;2023-02-26T11:58:35;98375.25;;;12.25;30.03
35655;BME280;21773;50.010;19.972;2023-02-26T12:01:40;98377.03;;;11.74;30.09
35655;BME280;21773;50.010;19.972;2023-02-26T12:04:46;98385.91;;;11.58;30.48
35655;BME280;21773;50.010;19.972;2023-02-26T12:07:52;98390.84;;;11.49;30.77
35655;BME280;21773;50.010;19.972;2023-02-26T12:14:56;98394.94;;;11.52;31.59
35655;BME280;21773;50.010;19.972;2023-02-26T12:21:58;98395.72;;;11.64;31.70
35655;BME280;21773;50.010;19.972;2023-02-26T12:25:21;98408.97;;;11.77;31.32
35655;BME280;21773;50.010;19.972;2023-02-26T12:28:42;98415.97;;;11.90;31.05
35655;BME280;21773;50.010;19.972;2023-02-26T12:32:14;98420.34;;;11.79;31.90
35655;BME280;21773;50.010;19.972;2023-02-26T12:35:46;98423.44;;;11.59;30.98
35655;BME280;21773;50.010;19.972;2023-02-26T12:38:56;98429.72;;;11.48;31.43
35655;BME280;21773;50.010;19.972;2023-02-26T12:42:11;98432.09;;;11.21;31.92
35655;BME280;21773;50.010;19.972;2023-02-26T12:45:46;98443.59;;;11.05;31.63
35655;BME280;21773;50.010;19.972;2023-02-26T12:49:18;98444.78;;;10.86;32.42
35655;BME280;21773;50.010;19.972;2023-02-26T12:52:53;98445.09;;;10.55;33.00
35655;BME280;21773;50.010;19.972;2023-02-26T12:56:13;98451.50;;;10.30;33.42
35655;BME280;21773;50.010;19.972;2023-02-26T12:59:35;98455.28;;;10.11;34.48
35655;BME280;21773;50.010;19.972;2023-02-26T13:06:47;98472.63;;;9.49;34.25
35655;BME280;21773;50.010;19.972;2023-02-26T13:10:02;98480.91;;;9.29;34.60
35655;BME280;21773;50.010;19.972;2023-02-26T13:13:29;98482.63;;;9.24;34.98
35655;BME280;21773;50.010;19.972;2023-02-26T13:16:43;98491.00;;;9.16;35.98
35655;BME280;21773;50.010;19.972;2023-02-26T13:19:54;98506.97;;;9.10;36.45
35655;BME280;21773;50.010;19.972;2023-02-26T13:23:00;98498.59;;;9.00;36.81
35655;BME280;21773;50.010;19.972;2023-02-26T13:26:07;98507.31;;;8.96;37.30
35655;BME280;21773;50.010;19.972;2023-02-26T13:29:15;98520.38;;;8.92;37.90
35655;BME280;21773;50.010;19.972;2023-02-26T13:32:24;98530.53;;;8.90;39.90
35655;BME280;21773;50.010;19.972;2023-02-26T13:35:32;98532.06;;;8.80;40.68
35655;BME280;21773;50.010;19.972;2023-02-26T13:38:49;98531.00;;;8.56;40.12
35655;BME280;21773;50.010;19.972;2023-02-26T13:42:00;98547.03;;;8.38;39.91
35655;BME280;21773;50.010;19.972;2023-02-26T13:45:22;98547.75;;;8.13;39.32
35655;BME280;21773;50.010;19.972;2023-02-26T13:48:39;98546.44;;;7.91;38.29
35655;BME280;21773;50.010;19.972;2023-02-26T13:51:46;98549.72;;;7.93;38.28
35655;BME280;21773;50.010;19.972;2023-02-26T13:54:50;98548.03;;;7.92;38.38
35655;BME280;21773;50.010;19.972;2023-02-26T13:57:54;98527.84;;;7.90;37.95
35655;BME280;21773;50.010;19.972;2023-02-26T14:01:03;98511.13;;;7.88;38.20
35655;BME280;21773;50.010;19.972;2023-02-26T14:04:24;98548.94;;;8.24;37.79
35655;BME280;21773;50.010;19.972;2023-02-26T14:07:47;98554.72;;;8.34;37.33
35655;BME280;21773;50.010;19.972;2023-02-26T14:10:57;98569.31;;;8.45;37.19
35655;BME280;21773;50.010;19.972;2023-02-26T14:14:10;98574.25;;;8.48;37.21
35655;BME280;21773;50.010;19.972;2023-02-26T14:17:29;98572.78;;;8.52;36.82
35655;BME280;21773;50.010;19.972;2023-02-26T14:20:35;98579.41;;;8.49;36.93
35655;BME280;21773;50.010;19.972;2023-02-26T14:23:39;98571.28;;;8.56;36.51
35655;BME280;21773;50.010;19.972;2023-02-26T14:26:46;98586.19;;;8.58;36.99
35655;BME280;21773;50.010;19.972;2023-02-26T14:29:59;98579.53;;;8.61;36.87
35655;BME280;21773;50.010;19.972;2023-02-26T14:33:07;98570.28;;;8.50;36.60
35655;BME280;21773;50.010;19.972;2023-02-26T14:36:19;98589.47;;;8.60;36.70
35655;BME280;21773;50.010;19.972;2023-02-26T14:39:27;98573.59;;;8.52;37.02
35655;BME280;21773;50.010;19.972;2023-02-26T14:42:33;98580.72;;;8.72;36.79
35655;BME280;21773;50.010;19.972;2023-02-26T14:45:39;98593.00;;;8.86;36.73
35655;BME280;21773;50.010;19.972;2023-02-26T14:48:43;98579.16;;;8.89;36.08
35655;BME280;21773;50.010;19.972;2023-02-26T14:51:58;98590.25;;;8.99;36.16
35655;BME280;21773;50.010;19.972;2023-02-26T14:55:20;98599.56;;;8.96;36.11
35655;BME280;21773;50.010;19.972;2023-02-26T14:58:54;98593.81;;;8.93;36.47
35655;BME280;21773;50.010;19.972;2023-02-26T15:02:17;98600.22;;;8.92;36.44
35655;BME280;21773;50.010;19.972;2023-02-26T15:05:39;98610.88;;;8.74;36.85
35655;BME280;21773;50.010;19.972;2023-02-26T15:08:55;98626.00;;;8.68;36.63
35655;BME280;21773;50.010;19.972;2023-02-26T15:12:13;98624.16;;;8.68;36.48
35655;BME280;21773;50.010;19.972;2023-02-26T15:15:29;98621.28;;;8.63;36.89
35655;BME280;21773;50.010;19.972;2023-02-26T15:18:52;98615.16;;;8.50;36.87
35655;BME280;21773;50.010;19.972;2023-02-26T15:22:07;98644.47;;;8.58;37.06
35655;BME280;21773;50.010;19.972;2023-02-26T15:25:27;98651.50;;;8.59;37.31
35655;BME280;21773;50.010;19.972;2023-02-26T15:28:34;98645.50;;;8.57;37.19
35655;BME280;21773;50.010;19.972;2023-02-26T15:31:41;98656.69;;;8.54;36.70
35655;BME280;21773;50.010;19.972;2023-02-26T15:34:46;98657.91;;;8.51;37.01
35655;BME280;21773;50.010;19.972;2023-02-26T15:37:52;98654.63;;;8.49;36.74
35655;BME280;21773;50.010;19.972;2023-02-26T15:41:01;98646.22;;;8.39;36.42
35655;BME280;21773;50.010;19.972;2023-02-26T15:44:07;98639.63;;;8.35;36.67
35655;BME280;21773;50.010;19.972;2023-02-26T15:47:14;98648.31;;;8.24;36.39
35655;BME280;21773;50.010;19.972;2023-02-26T15:50:18;98671.66;;;8.17;37.37
35655;BME280;21773;50.010;19.972;2023-02-26T15:53:28;98679.13;;;8.02;38.42
35655;BME280;21773;50.010;19.972;2023-02-26T15:56:36;98682.69;;;7.89;38.74
35655;BME280;21773;50.010;19.972;2023-02-26T15:59:44;98703.97;;;7.84;39.29
35655;BME280;21773;50.010;19.972;2023-02-26T16:02:48;98703.13;;;7.83;39.70
35655;BME280;21773;50.010;19.972;2023-02-26T16:05:53;98712.22;;;7.69;39.88
35655;BME280;21773;50.010;19.972;2023-02-26T16:08:58;98705.84;;;7.57;39.37
35655;BME280;21773;50.010;19.972;2023-02-26T16:12:06;98725.25;;;7.66;39.45
35655;BME280;21773;50.010;19.972;2023-02-26T16:15:12;98732.28;;;7.67;39.90
35655;BME280;21773;50.010;19.972;2023-02-26T16:18:22;98743.41;;;7.70;39.63
35655;BME280;21773;50.010;19.972;2023-02-26T16:21:30;98743.63;;;7.62;39.83
35655;BME280;21773;50.010;19.972;2023-02-26T16:24:34;98747.13;;;7.56;39.95
35655;BME280;21773;50.010;19.972;2023-02-26T16:27:39;98752.69;;;7.55;40.26
35655;BME280;21773;50.010;19.972;2023-02-26T16:30:46;98754.94;;;7.45;40.55
35655;BME280;21773;50.010;19.972;2023-02-26T16:33:58;98762.38;;;7.36;40.77
35655;BME280;21773;50.010;19.972;2023-02-26T16:37:10;98762.16;;;7.37;40.69
35655;BME280;21773;50.010;19.972;2023-02-26T16:40:19;98775.34;;;7.32;40.96
35655;BME280;21773;50.010;19.972;2023-02-26T16:43:41;98756.31;;;7.14;40.69
35655;BME280;21773;50.010;19.972;2023-02-26T16:46:50;98788.09;;;7.24;40.90
35655;BME280;21773;50.010;19.972;2023-02-26T16:49:54;98790.78;;;7.24;40.63
35655;BME280;21773;50.010;19.972;2023-02-26T16:53:00;98804.41;;;7.29;40.97